F05

Wilbarger County Airport

Vernon, Texas, USA
METAR KF05 170015Z AUTO 13017G22KT 10SM CLR 38/17 A2993 RMK AO1 T03790170
Observed Flight Rules
Jul-17 @ 00:15 UTC (11 minutes ago) Visual Flight Rules
Wind Visibility Clouds
130° at 17 knots
 Gusting to 22 knots
10 miles
  • Clear skies
Temperatures Readings
Current 38°C / 100°F
Dewpoint 17°C / 63°F
Humidity 29%
Altimeter 29.93" Hg
Pressure 1014 hPa
Elevation 386
METAR KF05 170015Z AUTO 13017G22KT 10SM CLR 38/17 A2993 RMK AO1 T03790170
Observed Flight Rules
Jul-17 @ 00:15 UTC
(11 minutes ago)
VFR
Wind Visibility
130° at 17 knots
 Gusting to 22 knots
10 miles
Clouds
  • Clear skies
Temperature Dewpoint
38°C / 100°F 17°C / 63°F
Humidity Altimeter Pressure
29% 29.93" Hg 1014 hPa